createdAt,value
2023-03-25T00:00:33.516Z,1.20
2023-03-25T00:03:24.277Z,0.50
2023-03-25T00:05:53.607Z,0.80
2023-03-25T00:08:23.975Z,0.50
2023-03-25T00:10:57.651Z,0.95
2023-03-25T00:13:26.227Z,0.65
2023-03-25T00:15:58.257Z,0.52
2023-03-25T00:18:33.891Z,1.58
2023-03-25T00:21:05.693Z,0.45
2023-03-25T00:23:34.245Z,0.50
2023-03-25T00:26:04.036Z,0.52
2023-03-25T00:28:34.528Z,0.45
2023-03-25T00:31:06.798Z,0.50
2023-03-25T00:33:37.351Z,0.52
2023-03-25T00:36:07.651Z,0.50
2023-03-25T00:38:37.967Z,0.40
2023-03-25T00:41:26.975Z,0.77
2023-03-25T00:43:56.512Z,0.65
2023-03-25T00:46:26.753Z,0.70
2023-03-25T00:48:55.733Z,0.45
2023-03-25T00:51:26.352Z,0.60
2023-03-25T00:54:00.240Z,0.90
2023-03-25T00:56:32.509Z,0.65
2023-03-25T00:59:01.222Z,1.10
2023-03-25T01:01:31.138Z,1.17
2023-03-25T01:04:01.170Z,1.42
2023-03-25T01:06:36.325Z,0.50
2023-03-25T01:09:07.333Z,0.65
2023-03-25T01:11:38.418Z,1.55
2023-03-25T01:14:08.902Z,2.00
2023-03-25T01:16:37.714Z,0.93
2023-03-25T01:19:08.538Z,2.10
2023-03-25T01:21:39.261Z,0.90
2023-03-25T01:24:13.164Z,1.75
2023-03-25T01:26:43.560Z,0.75
2023-03-25T01:29:15.957Z,1.33
2023-03-25T01:31:44.939Z,0.98
2023-03-25T01:34:15.531Z,0.88
2023-03-25T01:36:46.484Z,0.93
2023-03-25T01:39:18.630Z,0.90
2023-03-25T01:41:50.695Z,0.65
2023-03-25T01:44:22.891Z,0.95
2023-03-25T01:46:54.442Z,1.33
2023-03-25T01:49:30.165Z,0.90
2023-03-25T01:52:00.478Z,0.98
2023-03-25T01:54:29.293Z,1.08
2023-03-25T01:56:59.003Z,0.80
2023-03-25T01:59:30.825Z,0.90
2023-03-25T02:02:04.221Z,1.48
2023-03-25T02:04:45.354Z,1.15
2023-03-25T02:07:18.692Z,1.58
2023-03-25T02:09:49.420Z,1.30
2023-03-25T02:12:17.864Z,0.68
2023-03-25T02:14:46.599Z,0.88
2023-03-25T02:17:35.899Z,1.17
2023-03-25T02:20:23.667Z,1.38
2023-03-25T02:23:14.010Z,2.10
2023-03-25T02:26:00.830Z,0.50
2023-03-25T02:28:36.025Z,0.65
2023-03-25T02:31:09.945Z,0.73
2023-03-25T02:33:48.071Z,0.77
2023-03-25T02:36:49.714Z,0.40
2023-03-25T02:39:37.226Z,1.30
2023-03-25T02:42:26.635Z,0.52
2023-03-25T02:45:03.043Z,0.50
2023-03-25T02:47:35.102Z,0.30
2023-03-25T02:50:16.114Z,0.50
2023-03-25T02:52:50.537Z,0.50
2023-03-25T02:55:21.717Z,0.40
2023-03-25T02:57:52.576Z,0.57
2023-03-25T03:00:24.808Z,0.30
2023-03-25T03:03:12.676Z,0.40
2023-03-25T03:05:45.549Z,0.57
2023-03-25T03:08:33.151Z,0.45
2023-03-25T03:11:07.227Z,0.70
2023-03-25T03:13:54.390Z,0.63
2023-03-25T03:16:30.917Z,1.02
2023-03-25T03:19:04.986Z,0.45
2023-03-25T03:21:33.150Z,0.47
2023-03-25T03:24:06.390Z,0.43
2023-03-25T03:26:34.485Z,0.63
2023-03-25T03:29:09.158Z,1.10
2023-03-25T03:31:48.236Z,1.15
2023-03-25T03:34:46.965Z,0.77
2023-03-25T03:37:21.962Z,0.90
2023-03-25T03:39:53.465Z,0.40
2023-03-25T03:42:36.819Z,0.70
2023-03-25T03:45:08.921Z,0.55
2023-03-25T03:47:47.548Z,0.50
2023-03-25T03:50:18.796Z,0.50
2023-03-25T03:53:03.098Z,0.65
2023-03-25T03:55:42.333Z,0.50
2023-03-25T03:58:15.377Z,0.70
2023-03-25T04:01:03.199Z,0.63
2023-03-25T04:03:39.732Z,0.73
2023-03-25T04:06:14.936Z,0.98
2023-03-25T04:09:07.018Z,0.73
2023-03-25T04:11:44.078Z,0.68
2023-03-25T04:14:13.212Z,0.60
2023-03-25T04:16:45.615Z,0.65
2023-03-25T04:19:18.387Z,0.60
2023-03-25T04:21:49.173Z,0.80
2023-03-25T04:24:25.113Z,1.10
2023-03-25T04:26:57.716Z,0.57
2023-03-25T04:29:26.578Z,0.80
2023-03-25T04:31:56.858Z,0.82
2023-03-25T04:34:27.203Z,0.88
2023-03-25T04:36:58.418Z,0.70
2023-03-25T04:39:29.738Z,1.00
2023-03-25T04:41:58.357Z,0.68
2023-03-25T04:44:29.877Z,0.40
2023-03-25T04:47:03.555Z,0.30
2023-03-25T04:49:32.884Z,0.57
2023-03-25T04:52:02.303Z,0.70
2023-03-25T04:54:30.837Z,0.40
2023-03-25T04:56:59.530Z,0.70
2023-03-25T04:59:28.628Z,0.60
2023-03-25T05:01:57.709Z,0.70
2023-03-25T05:04:26.993Z,0.90
2023-03-25T05:06:57.359Z,1.25
2023-03-25T05:09:29.537Z,0.43
2023-03-25T05:11:58.234Z,0.60
2023-03-25T05:14:30.197Z,1.33
2023-03-25T05:17:00.177Z,1.17
2023-03-25T05:19:29.430Z,0.98
2023-03-25T05:22:01.493Z,1.27
2023-03-25T05:24:31.244Z,1.08
2023-03-25T05:27:02.355Z,0.30
2023-03-25T05:29:33.843Z,1.35
2023-03-25T05:32:02.649Z,0.80
2023-03-25T05:34:32.391Z,0.73
2023-03-25T05:37:01.821Z,0.90
2023-03-25T05:39:31.418Z,0.82
2023-03-25T05:42:02.692Z,0.82
2023-03-25T05:47:07.368Z,0.80
2023-03-25T05:49:35.940Z,0.77
2023-03-25T05:52:09.182Z,0.60
2023-03-25T05:54:42.066Z,0.68
2023-03-25T05:57:13.521Z,0.95
2023-03-25T05:59:42.770Z,0.30
2023-03-25T06:02:15.337Z,0.55
2023-03-25T06:04:46.557Z,0.68
2023-03-25T06:07:19.762Z,0.52
2023-03-25T06:09:49.581Z,0.83
2023-03-25T06:12:19.772Z,1.23
2023-03-25T06:14:54.328Z,0.80
2023-03-25T06:17:25.619Z,0.93
2023-03-25T06:19:56.748Z,1.10
2023-03-25T06:22:37.714Z,0.75
2023-03-25T06:25:07.708Z,0.77
2023-03-25T06:27:42.628Z,1.15
2023-03-25T06:30:15.321Z,0.75
2023-03-25T06:33:06.199Z,1.52
2023-03-25T06:35:36.140Z,1.27
2023-03-25T06:38:05.079Z,1.15
2023-03-25T06:40:57.001Z,0.85
2023-03-25T06:43:29.011Z,0.88
2023-03-25T06:46:11.931Z,0.77
2023-03-25T06:49:01.348Z,1.15
2023-03-25T06:51:31.511Z,0.82
2023-03-25T06:54:00.295Z,1.00
2023-03-25T06:56:29.880Z,0.60
2023-03-25T06:58:58.365Z,1.30
2023-03-25T07:01:26.876Z,1.40
2023-03-25T07:03:56.126Z,0.82
2023-03-25T07:06:25.467Z,1.35
2023-03-25T07:08:54.159Z,1.77
2023-03-25T07:11:26.314Z,1.98
2023-03-25T07:13:55.338Z,1.10
2023-03-25T07:16:28.393Z,1.48
2023-03-25T07:18:59.075Z,0.98
2023-03-25T07:21:27.597Z,1.20
2023-03-25T07:23:57.043Z,1.83
2023-03-25T07:26:25.919Z,1.35
2023-03-25T07:28:56.628Z,1.30
2023-03-25T07:31:25.359Z,1.60
2023-03-25T07:33:56.104Z,1.85
2023-03-25T07:36:29.013Z,1.00
2023-03-25T07:38:57.893Z,1.20
2023-03-25T07:41:26.716Z,0.93
2023-03-25T07:44:15.579Z,1.15
2023-03-25T07:46:46.086Z,1.10
2023-03-25T07:49:17.409Z,0.90
2023-03-25T07:51:46.738Z,1.17
2023-03-25T07:54:15.390Z,1.02
2023-03-25T07:56:46.736Z,0.80
2023-03-25T07:59:15.441Z,0.70
2023-03-25T08:01:44.803Z,0.85
2023-03-25T08:04:15.659Z,2.60
2023-03-25T08:06:46.016Z,1.05
2023-03-25T08:09:15.399Z,1.40
2023-03-25T08:11:43.879Z,2.08
2023-03-25T08:14:12.194Z,1.02
2023-03-25T08:16:41.390Z,1.10
2023-03-25T08:19:12.455Z,1.08
2023-03-25T08:21:41.328Z,0.65
2023-03-25T08:24:11.544Z,1.95
2023-03-25T08:26:39.872Z,0.90
2023-03-25T08:29:10.112Z,1.35
2023-03-25T08:31:40.518Z,1.05
2023-03-25T08:34:09.299Z,1.15
2023-03-25T08:36:41.119Z,0.95
2023-03-25T08:39:14.749Z,1.50
2023-03-25T08:41:43.459Z,1.25
2023-03-25T08:44:12.514Z,1.23
2023-03-25T08:46:41.655Z,1.40
2023-03-25T08:49:12.990Z,0.52
2023-03-25T08:51:42.002Z,1.08
2023-03-25T08:54:14.197Z,1.02
2023-03-25T08:56:43.626Z,1.35
2023-03-25T08:59:12.895Z,1.00
2023-03-25T09:01:42.242Z,0.73
2023-03-25T09:04:28.260Z,0.98
2023-03-25T09:07:10.401Z,1.35
2023-03-25T09:09:41.905Z,1.08
2023-03-25T09:12:13.594Z,1.10
2023-03-25T09:14:42.345Z,1.70
2023-03-25T09:17:13.826Z,1.27
2023-03-25T09:19:44.558Z,1.33
2023-03-25T09:22:13.012Z,1.33
2023-03-25T09:24:42.743Z,2.00
2023-03-25T09:27:13.573Z,1.60
2023-03-25T09:29:42.758Z,3.67
2023-03-25T09:32:11.294Z,1.75
2023-03-25T09:34:40.393Z,1.30
2023-03-25T09:37:11.032Z,1.67
2023-03-25T09:39:39.748Z,2.42
2023-03-25T09:42:08.450Z,1.70
2023-03-25T09:44:58.396Z,2.13
2023-03-25T09:47:33.893Z,2.03
2023-03-25T09:50:05.828Z,1.02
2023-03-25T09:52:39.943Z,1.35
2023-03-25T09:55:09.933Z,1.30
2023-03-25T09:57:49.119Z,1.33
2023-03-25T10:00:23.359Z,0.95
2023-03-25T10:03:19.065Z,4.15
2023-03-25T10:06:10.468Z,1.15
2023-03-25T10:08:44.573Z,1.88
2023-03-25T10:11:15.348Z,1.60
2023-03-25T10:14:12.215Z,0.82
2023-03-25T10:16:52.640Z,1.88
2023-03-25T10:19:36.287Z,1.20
2023-03-25T10:22:08.911Z,1.92
2023-03-25T10:24:36.962Z,1.23
2023-03-25T10:27:16.894Z,1.40
2023-03-25T10:29:49.972Z,0.80
2023-03-25T10:32:19.134Z,1.43
2023-03-25T10:34:52.843Z,1.70
2023-03-25T10:37:28.727Z,2.50
2023-03-25T10:40:01.416Z,1.65
2023-03-25T10:42:38.492Z,0.80
2023-03-25T10:45:18.230Z,1.35
2023-03-25T10:47:50.132Z,1.33
2023-03-25T10:50:20.271Z,0.88
2023-03-25T10:52:51.677Z,0.88
2023-03-25T10:55:25.824Z,1.15
2023-03-25T10:57:54.927Z,1.40
2023-03-25T11:00:26.157Z,1.33
2023-03-25T11:03:18.571Z,7.40
2023-03-25T11:05:47.232Z,1.00
2023-03-25T11:10:49.044Z,1.45
2023-03-25T11:13:22.006Z,0.93
2023-03-25T11:15:53.642Z,2.33
2023-03-25T11:18:28.391Z,1.90
2023-03-25T11:21:01.409Z,1.50
2023-03-25T11:23:36.558Z,1.42
2023-03-25T11:26:14.315Z,2.15
2023-03-25T11:28:45.307Z,1.50
2023-03-25T11:31:13.782Z,2.33
2023-03-25T11:34:03.950Z,1.85
2023-03-25T11:36:42.234Z,1.77
2023-03-25T11:39:26.842Z,2.25
2023-03-25T11:41:56.116Z,2.50
2023-03-25T11:44:29.042Z,1.80
2023-03-25T11:47:06.388Z,2.22
2023-03-25T11:49:37.297Z,1.38
2023-03-25T11:52:10.302Z,1.27
2023-03-25T11:54:38.822Z,1.80
2023-03-25T11:57:11.869Z,1.35
2023-03-25T11:59:44.321Z,1.23
2023-03-25T12:02:31.233Z,3.03
2023-03-25T12:05:04.103Z,2.65
2023-03-25T12:07:48.374Z,1.17
2023-03-25T12:10:22.127Z,1.90
2023-03-25T12:12:59.507Z,1.17
2023-03-25T12:15:47.404Z,0.88
2023-03-25T12:18:21.369Z,0.90
2023-03-25T12:23:20.172Z,0.85
2023-03-25T12:25:55.306Z,0.90
2023-03-25T12:28:35.208Z,0.90
2023-03-25T12:31:06.356Z,0.95
2023-03-25T12:33:52.008Z,1.88
2023-03-25T12:36:20.200Z,1.25
2023-03-25T12:38:58.292Z,1.42
2023-03-25T12:41:29.521Z,1.73
2023-03-25T12:43:57.624Z,0.80
2023-03-25T12:46:44.246Z,1.20
2023-03-25T12:49:24.333Z,2.05
2023-03-25T12:51:58.084Z,1.73
2023-03-25T12:57:13.523Z,1.50
2023-03-25T13:00:01.204Z,1.95
2023-03-25T13:03:02.737Z,2.00
2023-03-25T13:05:45.576Z,1.30
2023-03-25T13:08:13.602Z,1.95
2023-03-25T13:10:48.654Z,1.50
2023-03-25T13:13:24.347Z,1.73
2023-03-25T13:18:34.903Z,2.63
2023-03-25T13:21:14.098Z,1.30
2023-03-25T13:23:44.613Z,1.27
2023-03-25T13:26:15.378Z,1.15
2023-03-25T13:28:50.513Z,1.42
2023-03-25T13:31:20.674Z,1.20
2023-03-25T13:33:54.394Z,1.00
2023-03-25T13:36:42.565Z,1.30
2023-03-25T13:39:12.021Z,1.35
2023-03-25T13:41:46.049Z,0.63
2023-03-25T13:44:14.285Z,0.85
2023-03-25T13:46:51.616Z,0.80
2023-03-25T13:49:24.809Z,0.55
2023-03-25T13:51:56.157Z,0.50
2023-03-25T13:54:54.513Z,0.50
2023-03-25T13:57:24.474Z,0.40
2023-03-25T13:59:52.988Z,0.70
2023-03-25T14:02:32.915Z,0.70
2023-03-25T14:05:01.360Z,0.57
2023-03-25T14:07:49.557Z,0.77
2023-03-25T14:10:30.331Z,0.73
2023-03-25T14:13:02.669Z,0.90
2023-03-25T14:15:32.675Z,0.70
2023-03-25T14:18:01.660Z,0.65
2023-03-25T14:20:34.353Z,0.63
2023-03-25T14:23:05.528Z,0.50
2023-03-25T14:25:48.029Z,0.57
2023-03-25T14:28:21.942Z,0.70
2023-03-25T14:31:07.509Z,5.50
2023-03-25T14:33:54.441Z,1.05
2023-03-25T14:36:30.065Z,0.75
2023-03-25T14:38:59.693Z,1.13
2023-03-25T14:41:46.427Z,1.00
2023-03-25T14:44:21.220Z,1.48
2023-03-25T14:47:02.188Z,0.88
2023-03-25T14:49:54.231Z,1.00
2023-03-25T14:52:43.287Z,1.15
2023-03-25T14:55:17.417Z,0.82
2023-03-25T14:57:49.131Z,1.25
2023-03-25T15:00:28.359Z,0.73
2023-03-25T15:03:17.371Z,0.90
2023-03-25T15:05:53.791Z,1.58
2023-03-25T15:08:27.326Z,0.70
2023-03-25T15:11:07.940Z,1.13
2023-03-25T15:13:39.059Z,1.05
2023-03-25T15:16:18.102Z,1.73
2023-03-25T15:18:47.163Z,1.10
2023-03-25T15:21:17.366Z,1.30
2023-03-25T15:24:03.646Z,0.95
2023-03-25T15:26:38.366Z,1.50
2023-03-25T15:29:16.426Z,1.25
2023-03-25T15:31:51.879Z,1.70
2023-03-25T15:34:41.469Z,2.42
2023-03-25T15:37:20.470Z,0.80
2023-03-25T15:40:01.810Z,0.88
2023-03-25T15:43:00.587Z,1.65
2023-03-25T15:45:47.130Z,1.67
2023-03-25T15:48:15.091Z,0.93
2023-03-25T15:51:01.541Z,1.05
2023-03-25T15:53:42.445Z,1.10
2023-03-25T15:56:13.406Z,1.30
2023-03-25T15:59:03.303Z,0.90
2023-03-25T16:01:33.388Z,1.20
2023-03-25T16:04:07.709Z,1.08
2023-03-25T16:06:40.192Z,1.30
2023-03-25T16:09:12.536Z,1.83
2023-03-25T16:11:44.291Z,1.98
2023-03-25T16:14:12.854Z,1.00
2023-03-25T16:16:43.182Z,1.13
2023-03-25T16:19:17.615Z,1.38
2023-03-25T16:21:51.094Z,1.00
2023-03-25T16:24:21.540Z,1.77
2023-03-25T16:26:51.248Z,1.17
2023-03-25T16:29:22.700Z,0.80
2023-03-25T16:31:54.851Z,1.25
2023-03-25T16:34:26.286Z,0.68
2023-03-25T16:36:55.353Z,1.15
2023-03-25T16:39:25.131Z,2.38
2023-03-25T16:42:00.518Z,3.38
2023-03-25T16:44:31.293Z,1.35
2023-03-25T16:47:00.704Z,1.10
2023-03-25T16:49:35.832Z,1.23
2023-03-25T16:52:08.277Z,1.20
2023-03-25T16:54:38.689Z,1.20
2023-03-25T16:57:08.417Z,1.50
2023-03-25T16:59:39.124Z,1.35
2023-03-25T17:02:24.312Z,1.48
2023-03-25T17:04:58.224Z,1.73
2023-03-25T17:07:28.840Z,1.50
2023-03-25T17:09:58.828Z,1.15
2023-03-25T17:12:28.112Z,1.70
2023-03-25T17:15:06.999Z,1.90
2023-03-25T17:17:51.303Z,1.45
2023-03-25T17:20:21.605Z,0.85
2023-03-25T17:23:09.333Z,1.20
2023-03-25T17:25:49.058Z,0.90
2023-03-25T17:28:20.338Z,0.90
2023-03-25T17:30:49.808Z,1.20
2023-03-25T17:33:18.249Z,0.85
2023-03-25T17:35:54.335Z,0.75
2023-03-25T17:38:26.235Z,1.20
2023-03-25T17:40:59.119Z,1.00
2023-03-25T17:43:28.482Z,0.90
2023-03-25T17:45:57.615Z,0.90
2023-03-25T17:48:26.361Z,1.50
2023-03-25T17:50:56.577Z,1.08
2023-03-25T17:53:26.111Z,1.17
2023-03-25T17:55:55.395Z,1.33
2023-03-25T17:58:26.805Z,2.13
2023-03-25T18:00:55.367Z,1.15
2023-03-25T18:03:37.902Z,1.27
2023-03-25T18:06:07.435Z,1.15
2023-03-25T18:08:39.573Z,0.75
2023-03-25T18:11:10.060Z,0.95
2023-03-25T18:13:41.071Z,0.90
2023-03-25T18:16:11.358Z,0.80
2023-03-25T18:18:40.634Z,0.98
2023-03-25T18:21:13.258Z,0.98
2023-03-25T18:23:47.647Z,1.92
2023-03-25T18:26:18.442Z,0.90
2023-03-25T18:28:47.814Z,1.00
2023-03-25T18:31:17.743Z,2.35
2023-03-25T18:33:50.008Z,1.30
2023-03-25T18:36:21.659Z,2.20
2023-03-25T18:38:50.565Z,1.83
2023-03-25T18:41:19.806Z,1.50
2023-03-25T18:43:48.701Z,2.85
2023-03-25T18:46:18.095Z,1.70
2023-03-25T18:48:46.836Z,1.30
2023-03-25T18:51:15.638Z,1.38
2023-03-25T18:53:44.312Z,1.85
2023-03-25T18:56:15.165Z,1.27
2023-03-25T18:58:46.437Z,1.80
2023-03-25T19:01:18.687Z,1.70
2023-03-25T19:03:50.598Z,1.23
2023-03-25T19:06:21.574Z,2.42
2023-03-25T19:08:51.119Z,2.30
2023-03-25T19:11:22.260Z,2.25
2023-03-25T19:13:52.996Z,1.77
2023-03-25T19:16:22.551Z,2.05
2023-03-25T19:18:55.965Z,2.10
2023-03-25T19:21:25.057Z,1.10
2023-03-25T19:23:54.573Z,2.03
2023-03-25T19:26:27.292Z,1.50
2023-03-25T19:28:58.547Z,2.13
2023-03-25T19:31:29.533Z,1.52
2023-03-25T19:33:58.192Z,1.52
2023-03-25T19:36:27.870Z,1.45
2023-03-25T19:39:05.450Z,1.92
2023-03-25T19:41:34.920Z,1.60
2023-03-25T19:44:03.591Z,1.73
2023-03-25T19:46:33.728Z,2.00
2023-03-25T19:49:02.236Z,2.75
2023-03-25T19:51:32.911Z,1.75
2023-03-25T19:54:05.096Z,3.05
2023-03-25T19:56:39.885Z,2.67
2023-03-25T19:59:10.180Z,2.58
2023-03-25T20:01:41.546Z,2.85
2023-03-25T20:04:10.621Z,2.97
2023-03-25T20:06:39.938Z,2.20
2023-03-25T20:09:10.725Z,3.17
2023-03-25T20:11:39.942Z,2.40
2023-03-25T20:14:10.977Z,2.03
2023-03-25T20:16:39.492Z,2.60
2023-03-25T20:19:09.635Z,3.78
2023-03-25T20:21:42.641Z,2.33
2023-03-25T20:24:14.813Z,2.15
2023-03-25T20:26:44.468Z,2.50
2023-03-25T20:29:17.628Z,1.67
2023-03-25T20:31:46.457Z,2.30
2023-03-25T20:34:15.162Z,2.30
2023-03-25T20:36:44.393Z,5.35
2023-03-25T20:39:13.526Z,2.30
2023-03-25T20:41:42.133Z,7.53
2023-03-25T20:44:12.997Z,4.55
2023-03-25T20:46:44.161Z,5.30
2023-03-25T20:49:15.540Z,4.28
2023-03-25T20:51:44.861Z,13.00
2023-03-25T20:54:16.779Z,8.80
2023-03-25T20:56:48.101Z,13.63
2023-03-25T20:59:18.019Z,10.35
2023-03-25T21:01:50.717Z,17.48
2023-03-25T21:04:21.000Z,5.10
2023-03-25T21:06:50.925Z,5.35
2023-03-25T21:09:20.436Z,2.15
2023-03-25T21:11:50.347Z,2.67
2023-03-25T21:14:19.661Z,2.38
2023-03-25T21:16:48.636Z,3.22
2023-03-25T21:19:18.148Z,3.03
2023-03-25T21:21:46.786Z,1.42
2023-03-25T21:24:16.850Z,1.70
2023-03-25T21:26:45.498Z,2.75
2023-03-25T21:29:14.608Z,2.65
2023-03-25T21:31:47.727Z,2.33
2023-03-25T21:34:17.129Z,2.80
2023-03-25T21:36:48.439Z,14.18
2023-03-25T21:39:17.373Z,7.22
2023-03-25T21:41:46.222Z,1.52
2023-03-25T21:44:16.335Z,1.83
2023-03-25T21:46:45.651Z,3.70
2023-03-25T21:49:15.527Z,2.47
2023-03-25T21:51:56.534Z,3.45
2023-03-25T21:54:28.707Z,3.53
2023-03-25T21:56:57.276Z,3.70
2023-03-25T21:59:25.740Z,4.05
2023-03-25T22:01:54.352Z,5.18
2023-03-25T22:04:25.922Z,6.68
2023-03-25T22:06:56.747Z,7.50
2023-03-25T22:09:25.459Z,3.45
2023-03-25T22:11:55.624Z,4.78
2023-03-25T22:14:24.321Z,5.47
2023-03-25T22:16:53.335Z,9.05
2023-03-25T22:19:24.051Z,7.40
2023-03-25T22:21:53.053Z,4.55
2023-03-25T22:24:23.695Z,5.57
2023-03-25T22:26:52.099Z,4.75
2023-03-25T22:29:20.812Z,3.30
2023-03-25T22:31:55.731Z,4.97
2023-03-25T22:34:24.883Z,1.00
2023-03-25T22:36:56.093Z,3.53
2023-03-25T22:39:26.951Z,3.30
2023-03-25T22:41:57.460Z,2.35
2023-03-25T22:44:31.972Z,1.40
2023-03-25T22:47:00.488Z,1.67
2023-03-25T22:49:31.279Z,1.80
2023-03-25T22:51:59.642Z,1.80
2023-03-25T22:54:28.043Z,1.65
2023-03-25T22:56:58.305Z,1.70
2023-03-25T22:59:29.336Z,1.92
2023-03-25T23:01:58.020Z,1.45
2023-03-25T23:04:26.694Z,2.10
2023-03-25T23:07:07.123Z,2.50
2023-03-25T23:09:42.282Z,1.80
2023-03-25T23:12:22.809Z,2.28
2023-03-25T23:14:55.879Z,1.70
2023-03-25T23:17:27.131Z,1.63
2023-03-25T23:19:56.105Z,2.20
2023-03-25T23:22:25.110Z,1.90
2023-03-25T23:24:54.204Z,2.03
2023-03-25T23:27:24.886Z,1.52
2023-03-25T23:32:29.138Z,2.92
2023-03-25T23:34:58.419Z,1.92
2023-03-25T23:37:34.019Z,1.92
2023-03-25T23:40:07.245Z,2.53
2023-03-25T23:42:40.072Z,2.50
2023-03-25T23:45:09.562Z,2.67
2023-03-25T23:47:39.786Z,2.50
2023-03-25T23:50:14.562Z,2.08
2023-03-25T23:52:43.002Z,2.90
2023-03-25T23:55:12.273Z,2.33
2023-03-25T23:57:41.460Z,2.80
